createdAt,value
2018-09-27T01:31:06.968Z,99.99
2018-09-27T01:31:07.542Z,99.99
2018-09-27T01:31:08.139Z,99.99
2018-09-27T01:31:08.738Z,99.99
2018-09-27T01:31:09.339Z,99.99
2018-09-27T01:31:09.939Z,99.99
2018-09-27T01:31:10.537Z,99.99
2018-09-27T01:31:11.136Z,99.99
2018-09-27T01:32:05.616Z,99.99
2018-09-27T01:32:06.213Z,99.99
2018-09-27T01:32:06.814Z,99.99
2018-09-27T01:32:07.415Z,99.99
2018-09-27T01:32:08.013Z,99.99
2018-09-27T01:32:08.618Z,99.99
2018-09-27T01:32:09.213Z,99.99
2018-09-27T01:32:09.813Z,99.99
2018-09-27T01:33:04.296Z,99.99
2018-09-27T01:33:04.891Z,99.99
2018-09-27T01:33:05.490Z,99.99
2018-09-27T01:33:06.089Z,99.99
2018-09-27T01:33:06.690Z,99.99
2018-09-27T01:33:07.290Z,99.99
2018-09-27T01:33:07.890Z,99.99
2018-09-27T01:33:08.491Z,99.99
2018-09-27T01:34:02.035Z,99.99
2018-09-27T01:34:02.546Z,99.99
2018-09-27T01:34:03.145Z,99.99
2018-09-27T01:34:03.742Z,99.99
2018-09-27T01:34:04.342Z,99.99
2018-09-27T01:34:04.944Z,99.99
2018-09-27T01:34:05.543Z,99.99
2018-09-27T01:34:06.144Z,99.99
2018-09-27T01:35:00.627Z,99.99
2018-09-27T01:35:01.219Z,99.99
2018-09-27T01:35:01.819Z,99.99
2018-09-27T01:35:02.418Z,99.99
2018-09-27T01:35:03.019Z,99.99
2018-09-27T01:35:03.620Z,99.99
2018-09-27T01:35:04.263Z,99.99
2018-09-27T01:35:04.817Z,99.99
2018-09-27T01:35:58.302Z,99.99
2018-09-27T01:35:58.875Z,99.99
2018-09-27T01:35:59.473Z,99.99
2018-09-27T01:36:00.077Z,99.99
2018-09-27T01:36:00.673Z,99.99
2018-09-27T01:36:01.277Z,99.99
2018-09-27T01:36:01.871Z,99.99
2018-09-27T01:36:02.472Z,99.99
2018-09-27T01:36:55.927Z,99.99
2018-09-27T01:36:56.524Z,99.99
2018-09-27T01:36:57.123Z,99.99
2018-09-27T01:36:57.724Z,99.99
2018-09-27T01:36:58.323Z,99.99
2018-09-27T01:36:58.923Z,99.99
2018-09-27T01:36:59.523Z,99.99
2018-09-27T01:37:00.124Z,99.99
2018-09-27T01:37:54.603Z,99.99
2018-09-27T01:37:55.202Z,99.99
2018-09-27T01:37:55.800Z,99.99
2018-09-27T01:37:56.399Z,99.99
2018-09-27T01:37:57.000Z,99.99
2018-09-27T01:37:57.599Z,99.99
2018-09-27T01:37:58.199Z,99.99
2018-09-27T01:37:58.798Z,99.99
2018-09-27T01:38:53.278Z,99.99
2018-09-27T01:38:53.883Z,99.99
2018-09-27T01:38:54.475Z,99.99
2018-09-27T01:38:55.075Z,99.99
2018-09-27T01:38:55.679Z,99.99
2018-09-27T01:38:56.276Z,99.99
2018-09-27T01:38:56.876Z,99.99
2018-09-27T01:38:57.475Z,99.99
2018-09-27T01:39:50.932Z,99.99
2018-09-27T01:39:51.531Z,99.99
2018-09-27T01:39:52.131Z,99.99
2018-09-27T01:39:52.727Z,99.99
2018-09-27T01:39:53.326Z,99.99
2018-09-27T01:39:53.927Z,99.99
2018-09-27T01:39:54.528Z,99.99
2018-09-27T01:39:55.127Z,99.99
2018-09-27T01:40:48.582Z,99.99
2018-09-27T01:40:49.181Z,99.99
2018-09-27T01:40:49.780Z,99.99
2018-09-27T01:40:50.380Z,99.99
2018-09-27T01:40:50.980Z,99.99
2018-09-27T01:40:51.579Z,99.99
2018-09-27T01:40:52.180Z,99.99
2018-09-27T01:40:52.781Z,99.99
2018-09-27T01:41:47.282Z,99.99
2018-09-27T01:41:47.856Z,99.99
2018-09-27T01:41:48.455Z,99.99
2018-09-27T01:41:49.055Z,99.99
2018-09-27T01:41:49.657Z,99.99
2018-09-27T01:41:50.257Z,99.99
2018-09-27T01:41:50.854Z,99.99
2018-09-27T01:41:51.455Z,99.99
2018-09-27T01:42:44.911Z,99.99
2018-09-27T01:42:45.507Z,99.99
2018-09-27T01:42:46.108Z,99.99
2018-09-27T01:42:46.708Z,99.99
2018-09-27T01:42:47.310Z,99.99
2018-09-27T01:42:47.908Z,99.99
2018-09-27T01:42:48.508Z,99.99
2018-09-27T01:42:49.107Z,99.99
2018-09-27T01:43:42.562Z,99.99
2018-09-27T01:43:43.159Z,99.99
2018-09-27T01:43:43.760Z,99.99
2018-09-27T01:43:44.359Z,99.99
2018-09-27T01:43:44.959Z,99.99
2018-09-27T01:43:45.560Z,99.99
2018-09-27T01:43:46.160Z,99.99
2018-09-27T01:43:46.758Z,99.99
2018-09-27T01:44:41.239Z,99.99
2018-09-27T01:44:41.835Z,99.99
2018-09-27T01:44:42.437Z,99.99
2018-09-27T01:44:43.036Z,99.99
2018-09-27T01:44:43.634Z,99.99
2018-09-27T01:44:44.238Z,99.99
2018-09-27T01:44:44.837Z,99.99
2018-09-27T01:44:45.435Z,99.99
2018-09-27T01:45:39.913Z,99.99
2018-09-27T01:45:40.511Z,99.99
2018-09-27T01:45:41.109Z,99.99
2018-09-27T01:45:41.709Z,99.99
2018-09-27T01:45:42.310Z,99.99
2018-09-27T01:45:42.910Z,99.99
2018-09-27T01:45:43.509Z,99.99
2018-09-27T01:45:44.109Z,99.99
2018-09-27T01:46:37.600Z,99.99
2018-09-27T01:46:38.164Z,99.99
2018-09-27T01:46:38.762Z,99.99
2018-09-27T01:46:39.361Z,99.99
2018-09-27T01:46:39.964Z,99.99
2018-09-27T01:46:40.562Z,99.99
2018-09-27T01:46:41.161Z,99.99
2018-09-27T01:46:41.761Z,99.99
2018-09-27T01:47:35.225Z,99.99
2018-09-27T01:47:35.814Z,99.99
2018-09-27T01:47:36.414Z,99.99
2018-09-27T01:47:37.016Z,99.99
2018-09-27T01:47:37.616Z,99.99
2018-09-27T01:47:38.215Z,99.99
2018-09-27T01:47:38.816Z,99.99
2018-09-27T01:47:39.417Z,99.99
2018-09-27T01:48:32.917Z,99.99
2018-09-27T01:48:33.468Z,99.99
2018-09-27T01:48:34.067Z,99.99
2018-09-27T01:48:34.668Z,99.99
2018-09-27T01:48:35.266Z,99.99
2018-09-27T01:48:35.867Z,99.99
2018-09-27T01:48:36.467Z,99.99
2018-09-27T01:48:37.067Z,99.99
2018-09-27T01:49:30.523Z,99.99
2018-09-27T01:49:31.120Z,99.99
2018-09-27T01:49:31.719Z,99.99
2018-09-27T01:49:32.317Z,99.99
2018-09-27T01:49:32.917Z,99.99
2018-09-27T01:49:33.517Z,99.99
2018-09-27T01:49:34.119Z,99.99
2018-09-27T01:49:34.717Z,99.99
2018-09-27T01:50:28.172Z,99.99
2018-09-27T01:50:28.778Z,99.99
2018-09-27T01:50:29.369Z,99.99
2018-09-27T01:50:29.969Z,99.99
2018-09-27T01:50:30.570Z,99.99
2018-09-27T01:50:31.169Z,99.99
2018-09-27T01:50:31.769Z,99.99
2018-09-27T01:50:32.369Z,99.99
2018-09-27T01:51:26.851Z,99.99
2018-09-27T01:51:27.445Z,99.99
2018-09-27T01:51:28.046Z,99.99
2018-09-27T01:51:28.644Z,99.99
2018-09-27T01:51:29.243Z,99.99
2018-09-27T01:51:29.844Z,99.99
2018-09-27T01:51:30.446Z,99.99
2018-09-27T01:51:31.044Z,99.99
2018-09-27T01:52:25.557Z,99.99
2018-09-27T01:52:26.122Z,99.99
2018-09-27T01:52:26.720Z,99.99
2018-09-27T01:52:27.319Z,99.99
2018-09-27T01:52:27.921Z,99.99
2018-09-27T01:52:28.520Z,99.99
2018-09-27T01:52:29.120Z,99.99
2018-09-27T01:52:29.719Z,99.99
2018-09-27T01:53:23.176Z,99.99
2018-09-27T01:53:23.775Z,99.99
2018-09-27T01:53:24.373Z,99.99
2018-09-27T01:53:24.975Z,99.99
2018-09-27T01:53:25.573Z,99.99
2018-09-27T01:53:26.209Z,99.99
2018-09-27T01:53:26.778Z,99.99
2018-09-27T01:53:27.371Z,99.99
2018-09-27T01:54:20.830Z,99.99
2018-09-27T01:54:21.425Z,99.99
2018-09-27T01:54:22.026Z,99.99
2018-09-27T01:54:22.625Z,99.99
2018-09-27T01:54:23.226Z,99.99
2018-09-27T01:54:23.824Z,99.99
2018-09-27T01:54:24.424Z,99.99
2018-09-27T01:54:25.024Z,99.99
2018-09-27T01:55:19.504Z,99.99
2018-09-27T01:55:20.101Z,99.99
2018-09-27T01:55:20.699Z,99.99
2018-09-27T01:55:21.299Z,99.99
2018-09-27T01:55:21.900Z,99.99
2018-09-27T01:55:22.500Z,99.99
2018-09-27T01:55:23.099Z,99.99
2018-09-27T01:55:23.699Z,99.99
2018-09-27T01:56:18.179Z,99.99
2018-09-27T01:56:18.776Z,99.99
2018-09-27T01:56:19.377Z,99.99
2018-09-27T01:56:19.976Z,99.99
2018-09-27T01:56:20.577Z,99.99
2018-09-27T01:56:21.177Z,99.99
2018-09-27T01:56:21.775Z,99.99
2018-09-27T01:56:22.376Z,99.99
2018-09-27T01:57:16.885Z,99.99
2018-09-27T01:57:17.453Z,99.99
2018-09-27T01:57:18.051Z,99.99
2018-09-27T01:57:18.650Z,99.99
2018-09-27T01:57:19.251Z,99.99
2018-09-27T01:57:19.856Z,99.99
2018-09-27T01:57:20.451Z,99.99
2018-09-27T01:57:21.054Z,99.99
2018-09-27T01:58:15.530Z,99.99
2018-09-27T01:58:16.128Z,99.99
2018-09-27T01:58:16.729Z,99.99
2018-09-27T01:58:17.328Z,99.99
2018-09-27T01:58:17.929Z,99.99
2018-09-27T01:58:18.529Z,99.99
2018-09-27T01:58:19.129Z,99.99
2018-09-27T01:58:19.727Z,99.99
2018-09-27T01:59:13.183Z,99.99
2018-09-27T01:59:13.783Z,99.99
2018-09-27T01:59:14.380Z,99.99
2018-09-27T01:59:14.981Z,99.99
2018-09-27T01:59:15.579Z,99.99
2018-09-27T01:59:16.179Z,99.99
2018-09-27T01:59:16.779Z,99.99
2018-09-27T01:59:17.383Z,99.99
2018-09-27T02:00:11.860Z,99.99
2018-09-27T02:00:12.455Z,99.99
2018-09-27T02:00:13.054Z,99.99
2018-09-27T02:00:13.654Z,99.99
2018-09-27T02:00:14.255Z,99.99
2018-09-27T02:00:14.853Z,99.99
2018-09-27T02:00:15.454Z,99.99
2018-09-27T02:00:16.054Z,99.99
2018-09-27T02:01:10.535Z,99.99
2018-09-27T02:01:11.129Z,99.99
2018-09-27T02:01:11.729Z,99.99
2018-09-27T02:01:12.330Z,99.99
2018-09-27T02:01:12.929Z,99.99
2018-09-27T02:01:13.541Z,99.99
2018-09-27T02:01:14.129Z,99.99
2018-09-27T02:01:14.729Z,99.99
2018-09-27T02:02:09.210Z,99.99
2018-09-27T02:02:09.807Z,99.99
2018-09-27T02:02:10.406Z,99.99
2018-09-27T02:02:11.007Z,99.99
2018-09-27T02:02:11.607Z,99.99
2018-09-27T02:02:12.208Z,99.99
2018-09-27T02:02:12.806Z,99.99
2018-09-27T02:02:13.409Z,99.99
2018-09-27T02:03:07.912Z,99.99
2018-09-27T02:03:08.482Z,99.99
2018-09-27T02:03:09.083Z,99.99
2018-09-27T02:03:09.681Z,99.99
2018-09-27T02:03:10.281Z,99.99
2018-09-27T02:03:10.882Z,99.99
2018-09-27T02:03:11.481Z,99.99
2018-09-27T02:03:12.080Z,99.99
2018-09-27T02:04:05.541Z,99.99
2018-09-27T02:04:06.136Z,99.99
2018-09-27T02:04:06.734Z,99.99
2018-09-27T02:04:07.335Z,99.99
2018-09-27T02:04:07.935Z,99.99
2018-09-27T02:04:08.534Z,99.99
2018-09-27T02:04:09.133Z,99.99
2018-09-27T02:04:09.735Z,99.99
2018-09-27T02:05:04.213Z,99.99
2018-09-27T02:05:04.835Z,99.99
2018-09-27T02:05:05.415Z,99.99
2018-09-27T02:05:06.009Z,99.99
2018-09-27T02:05:06.610Z,99.99
2018-09-27T02:05:07.209Z,99.99
2018-09-27T02:05:07.809Z,99.99
2018-09-27T02:05:08.411Z,99.99
2018-09-27T02:06:01.863Z,99.99
2018-09-27T02:06:02.461Z,99.99
2018-09-27T02:06:03.066Z,99.99
2018-09-27T02:06:03.660Z,99.99
2018-09-27T02:06:04.262Z,99.99
2018-09-27T02:06:04.862Z,99.99
2018-09-27T02:06:05.461Z,99.99
2018-09-27T02:06:06.064Z,99.99
2018-09-27T02:06:59.517Z,99.99
2018-09-27T02:07:00.114Z,99.99
2018-09-27T02:07:00.713Z,99.99
2018-09-27T02:07:01.313Z,99.99
2018-09-27T02:07:01.914Z,99.99
2018-09-27T02:07:02.521Z,99.99
2018-09-27T02:07:03.121Z,99.99
2018-09-27T02:07:03.713Z,99.99
2018-09-27T02:07:57.169Z,99.99
2018-09-27T02:07:57.765Z,99.99
2018-09-27T02:07:58.364Z,99.99
2018-09-27T02:07:58.965Z,99.99
2018-09-27T02:07:59.564Z,99.99
2018-09-27T02:08:00.163Z,99.99
2018-09-27T02:08:00.765Z,99.99
2018-09-27T02:08:01.364Z,99.99
2018-09-27T02:08:54.845Z,99.99
2018-09-27T02:08:55.416Z,99.99
2018-09-27T02:08:56.017Z,99.99
2018-09-27T02:08:56.618Z,99.99
2018-09-27T02:08:57.219Z,99.99
2018-09-27T02:08:57.816Z,99.99
2018-09-27T02:08:58.421Z,99.99
2018-09-27T02:08:59.016Z,99.99
2018-09-27T02:09:52.473Z,99.99
2018-09-27T02:09:53.068Z,99.99
2018-09-27T02:09:53.668Z,99.99
2018-09-27T02:09:54.268Z,99.99
2018-09-27T02:09:54.869Z,99.99
2018-09-27T02:09:55.469Z,99.99
2018-09-27T02:09:56.068Z,99.99
2018-09-27T02:09:56.667Z,99.99
2018-09-27T02:10:50.122Z,99.99
2018-09-27T02:10:50.719Z,99.99
2018-09-27T02:10:51.319Z,99.99
2018-09-27T02:10:51.919Z,99.99
2018-09-27T02:10:52.520Z,99.99
2018-09-27T02:10:53.120Z,99.99
2018-09-27T02:10:53.722Z,99.99
2018-09-27T02:10:54.318Z,99.99
2018-09-27T02:11:47.776Z,99.99
2018-09-27T02:11:48.372Z,99.99
2018-09-27T02:11:48.975Z,99.99
2018-09-27T02:11:49.572Z,99.99
2018-09-27T02:11:50.175Z,99.99
2018-09-27T02:11:50.774Z,99.99
2018-09-27T02:11:51.372Z,99.99
2018-09-27T02:11:51.971Z,99.99
2018-09-27T02:12:46.962Z,99.99
2018-09-27T02:12:47.560Z,99.99
2018-09-27T02:12:48.163Z,99.99
2018-09-27T02:12:48.759Z,99.99
2018-09-27T02:12:49.359Z,99.99
2018-09-27T02:12:49.958Z,99.99
2018-09-27T02:12:50.557Z,99.99
2018-09-27T02:13:44.102Z,99.99
2018-09-27T02:13:44.700Z,99.99
2018-09-27T02:13:45.298Z,99.99
2018-09-27T02:13:45.899Z,99.99
2018-09-27T02:13:46.502Z,99.99
2018-09-27T02:13:47.103Z,99.99
2018-09-27T02:13:47.715Z,99.99
2018-09-27T02:13:48.300Z,99.99
2018-09-27T02:14:42.803Z,99.99
2018-09-27T02:14:43.375Z,99.99
2018-09-27T02:14:43.974Z,99.99
2018-09-27T02:14:44.576Z,99.99
2018-09-27T02:14:45.173Z,99.99
2018-09-27T02:14:45.774Z,99.99
2018-09-27T02:14:46.374Z,99.99
2018-09-27T02:14:46.974Z,99.99
2018-09-27T02:15:41.453Z,99.99
2018-09-27T02:15:42.055Z,99.99
2018-09-27T02:15:42.648Z,99.99
2018-09-27T02:15:43.248Z,99.99
2018-09-27T02:15:43.848Z,99.99
2018-09-27T02:15:44.449Z,99.99
2018-09-27T02:15:45.048Z,99.99
2018-09-27T02:15:45.648Z,99.99
2018-09-27T02:16:40.130Z,99.99
2018-09-27T02:16:40.726Z,99.99
2018-09-27T02:16:41.326Z,99.99
2018-09-27T02:16:41.926Z,99.99
2018-09-27T02:16:42.526Z,99.99
2018-09-27T02:16:43.125Z,99.99
2018-09-27T02:16:43.726Z,99.99
2018-09-27T02:16:44.326Z,99.99
2018-09-27T02:17:38.804Z,99.99
2018-09-27T02:17:39.428Z,99.99
2018-09-27T02:17:40.000Z,99.99
2018-09-27T02:17:40.601Z,99.99
2018-09-27T02:17:41.201Z,99.99
2018-09-27T02:17:41.804Z,99.99
2018-09-27T02:17:42.402Z,99.99
2018-09-27T02:17:43.000Z,99.99
2018-09-27T02:18:37.483Z,99.99
2018-09-27T02:18:38.075Z,99.99
2018-09-27T02:18:38.674Z,99.99
2018-09-27T02:18:39.275Z,99.99
2018-09-27T02:18:39.878Z,99.99
2018-09-27T02:18:40.475Z,99.99
2018-09-27T02:18:41.074Z,99.99
2018-09-27T02:18:41.674Z,99.99
2018-09-27T02:19:36.182Z,99.99
2018-09-27T02:19:36.754Z,99.99
2018-09-27T02:19:37.353Z,99.99
2018-09-27T02:19:37.952Z,99.99
2018-09-27T02:19:38.554Z,99.99
2018-09-27T02:19:39.155Z,99.99
2018-09-27T02:19:39.752Z,99.99
2018-09-27T02:19:40.353Z,99.99
2018-09-27T02:20:33.807Z,99.99
2018-09-27T02:20:34.409Z,99.99
2018-09-27T02:20:35.006Z,99.99
2018-09-27T02:20:35.606Z,99.99
2018-09-27T02:20:36.206Z,99.99
2018-09-27T02:20:36.808Z,99.99
2018-09-27T02:20:37.404Z,99.99
2018-09-27T02:20:38.010Z,99.99
2018-09-27T02:21:32.481Z,99.99
2018-09-27T02:21:33.083Z,99.99
2018-09-27T02:21:33.679Z,99.99
2018-09-27T02:21:34.278Z,99.99
2018-09-27T02:21:34.877Z,99.99
2018-09-27T02:21:35.479Z,99.99
2018-09-27T02:21:36.079Z,99.99
2018-09-27T02:21:36.677Z,99.99
2018-09-27T02:22:31.163Z,99.99
2018-09-27T02:22:31.756Z,99.99
2018-09-27T02:22:32.357Z,99.99
2018-09-27T02:22:32.956Z,99.99
2018-09-27T02:22:33.556Z,99.99
2018-09-27T02:22:34.156Z,99.99
2018-09-27T02:22:34.755Z,99.99
2018-09-27T02:22:35.356Z,99.99
2018-09-27T02:23:29.834Z,99.99
2018-09-27T02:23:30.431Z,99.99
2018-09-27T02:23:31.032Z,99.99
2018-09-27T02:23:31.632Z,99.99
2018-09-27T02:23:32.232Z,99.99
2018-09-27T02:23:32.830Z,99.99
2018-09-27T02:23:33.430Z,99.99
2018-09-27T02:23:34.030Z,99.99
2018-09-27T02:24:27.513Z,99.99
2018-09-27T02:24:28.085Z,99.99
2018-09-27T02:24:28.685Z,99.99
2018-09-27T02:24:29.283Z,99.99
2018-09-27T02:24:29.883Z,99.99
2018-09-27T02:24:30.485Z,99.99
2018-09-27T02:24:31.087Z,99.99
2018-09-27T02:24:31.682Z,99.99
2018-09-27T02:25:26.162Z,99.99
2018-09-27T02:25:26.760Z,99.99
2018-09-27T02:25:27.360Z,99.99
2018-09-27T02:25:27.959Z,99.99
2018-09-27T02:25:28.559Z,99.99
2018-09-27T02:25:29.159Z,99.99
2018-09-27T02:25:29.758Z,99.99
2018-09-27T02:25:30.358Z,99.99
2018-09-27T02:26:24.837Z,99.99
2018-09-27T02:26:25.434Z,99.99
2018-09-27T02:26:26.035Z,99.99
2018-09-27T02:26:26.633Z,99.99
2018-09-27T02:26:27.233Z,99.99
2018-09-27T02:26:27.833Z,99.99
2018-09-27T02:26:28.433Z,99.99
2018-09-27T02:26:29.033Z,99.99
2018-09-27T02:27:22.491Z,99.99
2018-09-27T02:27:23.087Z,99.99
2018-09-27T02:27:23.688Z,99.99
2018-09-27T02:27:24.287Z,99.99
2018-09-27T02:27:24.889Z,99.99
2018-09-27T02:27:25.486Z,99.99
2018-09-27T02:27:26.093Z,99.99
2018-09-27T02:27:26.689Z,99.99
2018-09-27T02:28:21.164Z,99.99
2018-09-27T02:28:21.763Z,99.99
2018-09-27T02:28:22.363Z,99.99
2018-09-27T02:28:22.962Z,99.99
2018-09-27T02:28:23.565Z,99.99
2018-09-27T02:28:24.162Z,99.99
2018-09-27T02:28:24.762Z,99.99
2018-09-27T02:28:25.361Z,99.99
2018-09-27T02:29:18.843Z,99.99
2018-09-27T02:29:19.420Z,99.99
2018-09-27T02:29:20.017Z,99.99
2018-09-27T02:29:20.614Z,99.99
2018-09-27T02:29:21.216Z,99.99
2018-09-27T02:29:21.816Z,99.99
2018-09-27T02:29:22.412Z,99.99
2018-09-27T02:29:23.011Z,99.99
2018-09-27T02:30:16.473Z,99.62
2018-09-27T02:30:17.065Z,99.52
2018-09-27T02:30:17.671Z,99.62
2018-09-27T02:30:18.265Z,99.62
2018-09-27T02:30:18.865Z,99.81
2018-09-27T02:30:19.465Z,99.71
2018-09-27T02:30:20.064Z,99.81
2018-09-27T02:30:20.665Z,99.90
2018-09-27T02:31:14.121Z,99.67
2018-09-27T02:31:14.724Z,99.90
2018-09-27T02:31:15.317Z,99.33
2018-09-27T02:31:15.918Z,99.99
2018-09-27T02:31:16.518Z,99.99
2018-09-27T02:31:17.117Z,99.99
2018-09-27T02:31:17.716Z,99.99
2018-09-27T02:31:18.324Z,99.99
2018-09-27T02:32:11.772Z,99.62
2018-09-27T02:32:12.368Z,99.71
2018-09-27T02:32:12.969Z,99.71
2018-09-27T02:32:13.573Z,99.52
2018-09-27T02:32:14.170Z,99.96
2018-09-27T02:32:14.769Z,99.90
2018-09-27T02:32:15.380Z,99.96
2018-09-27T02:32:15.968Z,99.90
2018-09-27T02:33:09.429Z,99.99
2018-09-27T02:33:10.026Z,99.99
2018-09-27T02:33:10.621Z,99.99
2018-09-27T02:33:11.223Z,99.99
2018-09-27T02:33:11.820Z,99.99
2018-09-27T02:33:12.422Z,99.99
2018-09-27T02:33:13.025Z,99.99
2018-09-27T02:33:13.621Z,99.99
2018-09-27T02:34:07.110Z,99.33
2018-09-27T02:34:07.677Z,99.62
2018-09-27T02:34:08.272Z,99.62
2018-09-27T02:34:08.873Z,99.52
2018-09-27T02:34:09.473Z,99.62
2018-09-27T02:34:10.073Z,99.62
2018-09-27T02:34:10.676Z,99.62
2018-09-27T02:34:11.273Z,99.71
2018-09-27T02:35:04.729Z,99.71
2018-09-27T02:35:05.324Z,99.71
2018-09-27T02:35:05.924Z,99.81
2018-09-27T02:35:06.525Z,99.71
2018-09-27T02:35:07.124Z,99.81
2018-09-27T02:35:07.726Z,99.99
2018-09-27T02:35:08.328Z,99.24
2018-09-27T02:35:08.925Z,99.62
2018-09-27T02:36:03.403Z,99.33
2018-09-27T02:36:04.001Z,99.52
2018-09-27T02:36:04.604Z,99.81
2018-09-27T02:36:05.198Z,99.90
2018-09-27T02:36:05.800Z,99.90
2018-09-27T02:36:06.401Z,99.99
2018-09-27T02:36:06.999Z,99.90
2018-09-27T02:36:07.600Z,99.90
2018-09-27T02:37:01.063Z,98.66
2018-09-27T02:37:01.652Z,98.66
2018-09-27T02:37:02.252Z,98.75
2018-09-27T02:37:02.850Z,98.47
2018-09-27T02:37:03.451Z,98.57
2018-09-27T02:37:04.052Z,98.57
2018-09-27T02:37:04.658Z,98.57
2018-09-27T02:37:05.252Z,98.66
2018-09-27T02:37:58.811Z,98.28
2018-09-27T02:37:59.406Z,98.09
2018-09-27T02:38:00.009Z,97.90
2018-09-27T02:38:00.609Z,98.28
2018-09-27T02:38:01.207Z,98.18
2018-09-27T02:38:01.807Z,97.71
2018-09-27T02:38:02.408Z,97.80
2018-09-27T02:38:03.005Z,97.99
2018-09-27T02:38:56.461Z,99.24
2018-09-27T02:38:57.060Z,99.24
2018-09-27T02:38:57.659Z,99.24
2018-09-27T02:38:58.258Z,99.24
2018-09-27T02:38:58.858Z,99.24
2018-09-27T02:38:59.456Z,99.14
2018-09-27T02:39:00.060Z,99.04
2018-09-27T02:39:00.657Z,98.85
2018-09-27T02:39:54.140Z,97.71
2018-09-27T02:39:54.710Z,97.71
2018-09-27T02:39:55.310Z,97.66
2018-09-27T02:39:55.913Z,97.71
2018-09-27T02:39:56.506Z,97.71
2018-09-27T02:39:57.108Z,97.52
2018-09-27T02:39:57.708Z,97.80
2018-09-27T02:39:58.307Z,97.75
2018-09-27T02:40:52.786Z,97.52
2018-09-27T02:40:53.383Z,97.90
2018-09-27T02:40:53.992Z,97.52
2018-09-27T02:40:54.585Z,97.52
2018-09-27T02:40:55.183Z,97.42
2018-09-27T02:40:55.784Z,97.71
2018-09-27T02:40:56.383Z,97.52
2018-09-27T02:40:56.985Z,97.42
2018-09-27T02:41:51.464Z,97.71
2018-09-27T02:41:52.061Z,97.61
2018-09-27T02:41:52.661Z,97.61
2018-09-27T02:41:53.266Z,97.23
2018-09-27T02:41:53.861Z,97.23
2018-09-27T02:41:54.461Z,97.90
2018-09-27T02:41:55.065Z,97.80
2018-09-27T02:41:55.661Z,97.42
2018-09-27T02:42:50.139Z,97.42
2018-09-27T02:42:50.736Z,97.42
2018-09-27T02:42:51.337Z,97.42
2018-09-27T02:42:51.938Z,97.42
2018-09-27T02:42:52.536Z,97.42
2018-09-27T02:42:53.135Z,97.42
2018-09-27T02:42:53.735Z,97.42
2018-09-27T02:42:54.340Z,97.42
2018-09-27T02:43:47.792Z,97.52
2018-09-27T02:43:48.389Z,97.90
2018-09-27T02:43:48.992Z,97.52
2018-09-27T02:43:49.588Z,97.52
2018-09-27T02:43:50.187Z,97.33
2018-09-27T02:43:50.801Z,97.42
2018-09-27T02:43:51.386Z,97.52
2018-09-27T02:43:51.985Z,97.52
2018-09-27T02:44:45.476Z,97.71
2018-09-27T02:44:46.041Z,97.61
2018-09-27T02:44:46.647Z,97.52
2018-09-27T02:44:47.238Z,97.23
2018-09-27T02:44:47.839Z,97.33
2018-09-27T02:44:48.439Z,97.42
2018-09-27T02:44:49.042Z,97.33
2018-09-27T02:44:49.638Z,97.33
2018-09-27T02:45:44.120Z,98.18
2018-09-27T02:45:44.718Z,97.71
2018-09-27T02:45:45.314Z,97.52
2018-09-27T02:45:45.915Z,98.18
2018-09-27T02:45:46.514Z,97.42
2018-09-27T02:45:47.115Z,97.42
2018-09-27T02:45:47.713Z,97.61
2018-09-27T02:45:48.316Z,97.52
2018-09-27T02:46:41.778Z,96.56
2018-09-27T02:46:42.367Z,96.84
2018-09-27T02:46:42.971Z,96.47
2018-09-27T02:46:43.584Z,96.84
2018-09-27T02:46:44.166Z,96.94
2018-09-27T02:46:44.768Z,96.94
2018-09-27T02:46:45.370Z,96.84
2018-09-27T02:46:45.965Z,96.84
2018-09-27T02:47:40.446Z,96.94
2018-09-27T02:47:41.042Z,96.94
2018-09-27T02:47:41.642Z,96.94
2018-09-27T02:47:42.241Z,96.94
2018-09-27T02:47:42.842Z,97.52
2018-09-27T02:47:43.443Z,96.94
2018-09-27T02:47:44.041Z,96.66
2018-09-27T02:47:44.641Z,96.66
2018-09-27T02:48:38.098Z,97.33
2018-09-27T02:48:38.696Z,97.33
2018-09-27T02:48:39.295Z,97.13
2018-09-27T02:48:39.895Z,97.33
2018-09-27T02:48:40.494Z,97.13
2018-09-27T02:48:41.094Z,97.52
2018-09-27T02:48:41.698Z,97.52
2018-09-27T02:48:42.294Z,97.52
2018-09-27T02:49:36.774Z,96.08
2018-09-27T02:49:37.369Z,95.98
2018-09-27T02:49:37.973Z,96.18
2018-09-27T02:49:38.569Z,96.27
2018-09-27T02:49:39.169Z,96.18
2018-09-27T02:49:39.770Z,96.27
2018-09-27T02:49:40.369Z,96.37
2018-09-27T02:49:40.973Z,96.18
2018-09-27T02:50:35.481Z,96.18
2018-09-27T02:50:36.046Z,96.08
2018-09-27T02:50:36.647Z,96.08
2018-09-27T02:50:37.246Z,96.08
2018-09-27T02:50:37.845Z,96.18
2018-09-27T02:50:38.445Z,96.18
2018-09-27T02:50:39.048Z,95.98
2018-09-27T02:50:39.646Z,95.98
2018-09-27T02:51:34.125Z,93.12
2018-09-27T02:51:34.720Z,92.74
2018-09-27T02:51:35.321Z,93.12
2018-09-27T02:51:35.921Z,93.12
2018-09-27T02:51:36.520Z,92.93
2018-09-27T02:51:37.120Z,92.93
2018-09-27T02:51:37.719Z,93.02
2018-09-27T02:51:38.322Z,92.93
2018-09-27T02:52:31.775Z,94.65
2018-09-27T02:52:32.374Z,94.65
2018-09-27T02:52:32.974Z,94.65
2018-09-27T02:52:33.575Z,94.55
2018-09-27T02:52:34.173Z,94.55
2018-09-27T02:52:34.786Z,94.74
2018-09-27T02:52:35.380Z,94.65
2018-09-27T02:52:35.972Z,94.74
2018-09-27T02:53:30.450Z,95.03
2018-09-27T02:53:31.048Z,95.03
2018-09-27T02:53:31.650Z,95.03
2018-09-27T02:53:32.250Z,95.03
2018-09-27T02:53:32.848Z,95.12
2018-09-27T02:53:33.449Z,95.03
2018-09-27T02:53:34.052Z,94.93
2018-09-27T02:53:34.650Z,94.93
2018-09-27T02:54:29.130Z,95.12
2018-09-27T02:54:29.723Z,95.12
2018-09-27T02:54:30.323Z,95.41
2018-09-27T02:54:30.922Z,95.32
2018-09-27T02:54:31.527Z,94.55
2018-09-27T02:54:32.123Z,94.55
2018-09-27T02:54:32.725Z,95.12
2018-09-27T02:54:33.323Z,94.74
2018-09-27T02:55:26.779Z,95.51
2018-09-27T02:55:27.379Z,95.41
2018-09-27T02:55:27.975Z,95.41
2018-09-27T02:55:28.573Z,95.41
2018-09-27T02:55:29.175Z,95.41
2018-09-27T02:55:29.774Z,95.61
2018-09-27T02:55:30.379Z,95.41
2018-09-27T02:55:30.974Z,95.61
2018-09-27T02:56:25.480Z,94.65
2018-09-27T02:56:26.055Z,94.84
2018-09-27T02:56:26.654Z,94.55
2018-09-27T02:56:27.251Z,94.65
2018-09-27T02:56:27.851Z,94.46
2018-09-27T02:56:28.451Z,94.55
2018-09-27T02:56:29.050Z,94.65
2018-09-27T02:56:29.653Z,94.74
2018-09-27T02:57:24.130Z,95.70
2018-09-27T02:57:24.727Z,95.70
2018-09-27T02:57:25.327Z,95.70
2018-09-27T02:57:25.928Z,95.70
2018-09-27T02:57:26.527Z,95.70
2018-09-27T02:57:27.126Z,95.70
2018-09-27T02:57:27.733Z,96.18
2018-09-27T02:57:28.330Z,96.56
2018-09-27T02:58:22.805Z,95.70
2018-09-27T02:58:23.401Z,95.79
2018-09-27T02:58:24.003Z,95.61
2018-09-27T02:58:24.602Z,95.70
2018-09-27T02:58:25.202Z,95.70
2018-09-27T02:58:25.801Z,95.70
2018-09-27T02:58:26.401Z,95.70
2018-09-27T02:58:27.001Z,95.70
2018-09-27T02:59:21.488Z,96.37
2018-09-27T02:59:22.078Z,96.08
2018-09-27T02:59:22.677Z,96.08
2018-09-27T02:59:23.279Z,96.27
2018-09-27T02:59:23.879Z,96.08
2018-09-27T02:59:24.477Z,96.08
2018-09-27T02:59:25.076Z,96.08
2018-09-27T02:59:25.677Z,96.18
2018-09-27T03:00:20.156Z,96.37
2018-09-27T03:00:20.752Z,95.98
2018-09-27T03:00:21.355Z,96.47
2018-09-27T03:00:21.953Z,96.18
2018-09-27T03:00:22.553Z,96.27
2018-09-27T03:00:23.153Z,96.27
2018-09-27T03:00:23.757Z,96.18
2018-09-27T03:00:24.352Z,96.56
2018-09-27T03:01:17.835Z,96.27
2018-09-27T03:01:18.408Z,96.18
2018-09-27T03:01:19.022Z,96.18
2018-09-27T03:01:19.607Z,96.47
2018-09-27T03:01:20.207Z,96.18
2018-09-27T03:01:20.806Z,96.37
2018-09-27T03:01:21.410Z,96.18
2018-09-27T03:01:22.006Z,96.18
2018-09-27T03:02:15.461Z,94.65
2018-09-27T03:02:16.058Z,94.93
2018-09-27T03:02:16.658Z,94.84
2018-09-27T03:02:17.261Z,94.65
2018-09-27T03:02:17.858Z,94.65
2018-09-27T03:02:18.457Z,94.46
2018-09-27T03:02:19.064Z,94.36
2018-09-27T03:02:19.657Z,94.55
2018-09-27T03:03:13.112Z,93.60
2018-09-27T03:03:13.714Z,93.69
2018-09-27T03:03:14.312Z,93.21
2018-09-27T03:03:14.912Z,93.50
2018-09-27T03:03:15.510Z,93.31
2018-09-27T03:03:16.116Z,93.50
2018-09-27T03:03:16.713Z,93.50
2018-09-27T03:03:17.309Z,93.50
2018-09-27T03:04:10.764Z,93.88
2018-09-27T03:04:11.360Z,93.69
2018-09-27T03:04:11.961Z,93.60
2018-09-27T03:04:12.561Z,93.69
2018-09-27T03:04:13.161Z,93.69
2018-09-27T03:04:13.760Z,93.69